Time;durP1;ratioP1;P1;durP2;ratioP2;P2;SDS_P1;SDS_P2;PMS_P1;PMS_P2;Temp;Humidity;BMP_temperature;BMP_pressure;BME280_temperature;BME280_humidity;BME280_pressure;Samples;Min_cycle;Max_cycle;Signal;HPM_P1;HPM_P2
2020/12/23 00:02:23;;;;;;;10.23;8.35;;;14.80;99.90;;;;;;5021802;28;20161;-94
2020/12/23 00:04:49;;;;;;;9.27;7.32;;;14.80;99.90;;;;;;5021780;28;20203;-93
2020/12/23 00:07:15;;;;;;;10.13;8.27;;;14.70;99.90;;;;;;5021347;28;20173;-93
2020/12/23 00:09:45;;;;;;;8.60;7.30;;;14.70;99.90;;;;;;5022825;28;20239;-94
2020/12/23 00:12:11;;;;;;;9.23;8.40;;;14.70;99.90;;;;;;5023318;28;20165;-94
2020/12/23 00:14:38;;;;;;;8.75;7.07;;;14.80;99.90;;;;;;5023204;28;20627;-94
2020/12/23 00:17:04;;;;;;;7.45;6.75;;;14.80;99.90;;;;;;5023681;28;20180;-94
2020/12/23 00:19:31;;;;;;;7.63;6.47;;;14.90;99.90;;;;;;5027792;28;20187;-95
2020/12/23 00:21:56;;;;;;;7.43;6.72;;;14.90;99.90;;;;;;5024743;28;20173;-94
2020/12/23 00:24:24;;;;;;;6.97;6.38;;;15.00;99.90;;;;;;5025421;28;20171;-93
2020/12/23 00:26:53;;;;;;;8.25;7.50;;;15.10;99.90;;;;;;5021872;28;20581;-93
2020/12/23 00:29:21;;;;;;;8.52;6.45;;;15.10;99.90;;;;;;5022821;28;20197;-95
2020/12/23 00:31:52;;;;;;;7.20;6.50;;;15.10;99.90;;;;;;5022384;28;20231;-94
2020/12/23 00:34:20;;;;;;;8.73;6.05;;;15.10;99.90;;;;;;5022813;28;20275;-92
2020/12/23 00:36:57;;;;;;;8.20;5.65;;;15.10;99.90;;;;;;5002665;28;20231;-94
2020/12/23 00:39:23;;;;;;;7.07;5.13;;;15.10;99.90;;;;;;5008053;28;20634;-94
2020/12/23 00:41:50;;;;;;;6.47;5.88;;;15.10;99.90;;;;;;5023563;28;20185;-93
2020/12/23 00:44:17;;;;;;;5.78;5.38;;;15.20;99.90;;;;;;5022532;28;20239;-93
2020/12/23 00:46:45;;;;;;;7.00;6.32;;;15.20;99.90;;;;;;5023766;28;20180;-94
2020/12/23 00:49:12;;;;;;;5.78;5.25;;;15.20;99.90;;;;;;5023187;28;20212;-93
2020/12/23 00:51:37;;;;;;;7.53;6.93;;;15.30;99.90;;;;;;5023500;28;20168;-93
2020/12/23 00:54:03;;;;;;;13.43;6.97;;;15.20;99.90;;;;;;5021537;28;20175;-93
2020/12/23 00:56:29;;;;;;;7.88;6.00;;;15.20;99.90;;;;;;5020030;28;20261;-93
2020/12/23 00:58:58;;;;;;;6.35;5.80;;;15.10;99.90;;;;;;5018820;28;20179;-92
2020/12/23 01:01:24;;;;;;;6.75;6.25;;;15.00;99.90;;;;;;5022461;28;20223;-92
2020/12/23 01:03:49;;;;;;;7.15;6.35;;;14.90;99.90;;;;;;5022005;28;20173;-91
2020/12/23 01:06:15;;;;;;;11.00;7.30;;;14.80;99.90;;;;;;5023222;28;20206;-91
2020/12/23 01:08:42;;;;;;;8.55;6.65;;;14.70;99.90;;;;;;5022423;28;20179;-92
2020/12/23 01:11:11;;;;;;;7.85;6.82;;;14.60;99.90;;;;;;5026359;28;20220;-92
2020/12/23 01:13:37;;;;;;;8.30;7.53;;;14.40;99.90;;;;;;5011060;28;20176;-91
2020/12/23 01:16:05;;;;;;;9.05;7.97;;;14.30;99.90;;;;;;5021862;28;20175;-89
2020/12/23 01:18:30;;;;;;;10.95;8.10;;;14.10;99.90;;;;;;5027458;28;20177;-90
2020/12/23 01:20:56;;;;;;;10.95;8.48;;;14.10;99.90;;;;;;5020197;28;20227;-92
2020/12/23 01:23:22;;;;;;;9.35;8.32;;;14.00;99.90;;;;;;4991111;28;20173;-92
2020/12/23 01:25:51;;;;;;;11.32;8.75;;;14.00;99.90;;;;;;5010993;28;20173;-91
2020/12/23 01:28:17;;;;;;;9.82;8.43;;;14.10;99.90;;;;;;5009887;28;20184;-91
2020/12/23 01:30:43;;;;;;;13.48;9.05;;;14.10;99.90;;;;;;5027283;28;20274;-92
2020/12/23 01:33:09;;;;;;;9.27;8.25;;;14.20;99.90;;;;;;5011703;28;20322;-91
2020/12/23 01:35:34;;;;;;;9.35;8.27;;;14.20;99.90;;;;;;5007117;28;20227;-92
2020/12/23 01:38:03;;;;;;;9.15;8.30;;;14.30;99.90;;;;;;4984224;28;20181;-91
2020/12/23 01:40:29;;;;;;;9.52;8.18;;;14.40;99.90;;;;;;5037315;28;20188;-91
2020/12/23 01:42:56;;;;;;;8.55;7.63;;;14.40;99.90;;;;;;5019131;28;20163;-92
2020/12/23 01:45:21;;;;;;;9.20;7.70;;;14.40;99.90;;;;;;5030833;28;20185;-92
2020/12/23 01:47:47;;;;;;;8.43;7.53;;;14.30;99.90;;;;;;5004724;28;20179;-93
2020/12/23 01:50:16;;;;;;;8.35;7.63;;;14.20;99.90;;;;;;5020962;28;20205;-93
2020/12/23 01:52:43;;;;;;;8.45;7.75;;;14.30;99.90;;;;;;5020103;28;20172;-92
2020/12/23 01:55:12;;;;;;;9.82;7.95;;;14.20;99.90;;;;;;5020188;28;20179;-91
2020/12/23 01:57:38;;;;;;;8.15;7.45;;;14.20;99.90;;;;;;5034365;28;20174;-90
2020/12/23 02:00:08;;;;;;;8.25;7.43;;;14.20;99.90;;;;;;5016061;28;20169;-91
2020/12/23 02:02:38;;;;;;;8.13;7.25;;;14.20;99.90;;;;;;5008906;28;20261;-92
2020/12/23 02:05:08;;;;;;;8.00;7.18;;;14.10;99.90;;;;;;5020508;28;20176;-92
2020/12/23 02:07:35;;;;;;;7.80;7.10;;;14.10;99.90;;;;;;5020431;28;20172;-92
2020/12/23 02:10:03;;;;;;;7.90;6.82;;;14.20;99.90;;;;;;5024164;28;20206;-92
2020/12/23 02:12:29;;;;;;;7.10;6.50;;;14.10;99.90;;;;;;5025280;28;20172;-92
2020/12/23 02:14:56;;;;;;;6.25;5.75;;;14.10;99.90;;;;;;5028131;28;20176;-91
2020/12/23 02:17:22;;;;;;;6.32;5.72;;;14.10;99.90;;;;;;5041048;28;20180;-91
2020/12/23 02:19:50;;;;;;;5.70;5.20;;;14.10;99.90;;;;;;5040412;28;20203;-92
2020/12/23 02:22:23;;;;;;;5.90;5.40;;;14.10;99.90;;;;;;5040370;28;20203;-90
2020/12/23 02:24:54;;;;;;;7.10;5.18;;;14.10;99.90;;;;;;5041469;28;20156;-91
2020/12/23 02:27:21;;;;;;;8.32;4.45;;;14.20;99.90;;;;;;5040933;28;20175;-91
2020/12/23 02:29:51;;;;;;;4.88;4.40;;;14.20;99.90;;;;;;5029710;28;20267;-91
2020/12/23 02:32:18;;;;;;;3.80;3.42;;;14.20;99.90;;;;;;5026106;28;20161;-91
2020/12/23 02:34:44;;;;;;;5.72;3.40;;;14.20;99.90;;;;;;5025482;28;20223;-91
2020/12/23 02:37:11;;;;;;;3.08;2.88;;;14.10;99.90;;;;;;5025304;28;20165;-92
2020/12/23 02:39:40;;;;;;;5.65;3.17;;;14.10;99.90;;;;;;5022795;28;20172;-92
2020/12/23 02:42:10;;;;;;;3.35;2.58;;;14.00;99.90;;;;;;5023800;28;20208;-92
2020/12/23 02:44:35;;;;;;;6.28;2.58;;;14.00;99.90;;;;;;5025062;28;20192;-93
2020/12/23 02:47:12;;;;;;;4.65;2.47;;;14.00;99.90;;;;;;5024667;28;20177;-91
2020/12/23 02:49:39;;;;;;;4.28;2.08;;;14.00;99.90;;;;;;5023919;28;20208;-93
2020/12/23 02:52:06;;;;;;;1.75;1.65;;;14.10;99.90;;;;;;5025755;28;20165;-94
2020/12/23 02:54:34;;;;;;;2.08;1.30;;;14.10;99.90;;;;;;5023654;28;20188;-93
2020/12/23 02:57:00;;;;;;;1.88;1.10;;;14.10;99.90;;;;;;5024109;28;20533;-93
2020/12/23 02:59:26;;;;;;;1.15;1.05;;;14.00;99.90;;;;;;5023468;28;20173;-93
2020/12/23 03:01:52;;;;;;;1.00;0.90;;;13.90;99.90;;;;;;5007064;28;20264;-94
2020/12/23 03:04:18;;;;;;;1.77;0.90;;;13.90;99.90;;;;;;5006601;28;20189;-94
2020/12/23 03:06:44;;;;;;;0.50;0.50;;;13.80;99.90;;;;;;5023793;28;20183;-93
2020/12/23 03:09:15;;;;;;;0.50;0.50;;;13.90;99.90;;;;;;5023289;28;20177;-95
2020/12/23 03:11:41;;;;;;;0.43;0.43;;;13.80;99.90;;;;;;5003659;28;20173;-94
2020/12/23 03:14:08;;;;;;;1.58;0.63;;;13.80;99.90;;;;;;5022151;28;20176;-94
2020/12/23 03:16:36;;;;;;;2.20;0.57;;;13.80;99.90;;;;;;5024068;28;20184;-94
2020/12/23 03:19:05;;;;;;;0.93;0.47;;;13.70;99.90;;;;;;5022358;28;20168;-94
2020/12/23 03:21:33;;;;;;;1.58;0.40;;;13.70;99.90;;;;;;5022043;28;20544;-94
2020/12/23 03:23:59;;;;;;;0.40;0.40;;;13.70;99.90;;;;;;5023079;28;20177;-94
2020/12/23 03:26:27;;;;;;;0.57;0.57;;;13.70;99.90;;;;;;5024342;28;20177;-94
2020/12/23 03:28:53;;;;;;;0.30;0.30;;;13.70;99.90;;;;;;5024135;28;20188;-94
2020/12/23 03:31:19;;;;;;;5.32;0.65;;;13.70;99.90;;;;;;5023102;28;20239;-94
2020/12/23 03:33:47;;;;;;;0.20;0.20;;;13.70;99.90;;;;;;5007428;28;20173;-95
2020/12/23 03:36:13;;;;;;;0.85;0.40;;;13.70;99.90;;;;;;5022821;28;20176;-92
2020/12/23 03:38:39;;;;;;;1.75;0.32;;;13.60;99.90;;;;;;5006638;28;20188;-93
2020/12/23 03:41:06;;;;;;;1.00;0.85;;;13.60;99.90;;;;;;4990612;28;20194;-94
2020/12/23 03:43:32;;;;;;;2.97;1.40;;;13.60;99.90;;;;;;5022792;28;20184;-93
2020/12/23 03:46:00;;;;;;;2.45;1.92;;;13.50;99.90;;;;;;5023039;28;20200;-94
2020/12/23 03:48:26;;;;;;;4.28;3.42;;;13.50;99.90;;;;;;5006257;28;20240;-94
2020/12/23 03:50:54;;;;;;;4.63;3.40;;;13.50;99.90;;;;;;5022081;28;20243;-94
2020/12/23 03:53:20;;;;;;;7.50;3.92;;;13.50;99.90;;;;;;5006672;28;20774;-94
2020/12/23 03:55:49;;;;;;;5.53;4.18;;;13.40;99.90;;;;;;5004281;28;20176;-92
2020/12/23 03:58:18;;;;;;;9.07;4.85;;;13.40;99.90;;;;;;5022047;28;20236;-95
2020/12/23 04:00:43;;;;;;;9.57;4.43;;;13.40;99.90;;;;;;5023017;28;20179;-94
2020/12/23 04:03:12;;;;;;;5.85;3.65;;;13.40;99.90;;;;;;5006899;28;20192;-94
2020/12/23 04:05:38;;;;;;;8.13;3.90;;;13.40;99.90;;;;;;5025045;28;20798;-93
2020/12/23 04:08:05;;;;;;;6.80;2.90;;;13.40;99.90;;;;;;5039043;28;20180;-92
2020/12/23 04:10:31;;;;;;;3.15;2.78;;;13.40;99.90;;;;;;5036632;28;20219;-94
2020/12/23 04:13:20;;;;;;;7.35;2.67;;;13.40;99.90;;;;;;5031447;28;20169;-95
2020/12/23 04:15:48;;;;;;;5.30;2.30;;;13.40;99.90;;;;;;5022516;28;20227;-94
2020/12/23 04:18:13;;;;;;;2.50;1.75;;;13.40;99.90;;;;;;5003222;28;20180;-95
2020/12/23 04:20:41;;;;;;;1.67;1.45;;;13.40;99.90;;;;;;5009617;28;20180;-95
2020/12/23 04:23:12;;;;;;;3.38;2.15;;;13.40;99.90;;;;;;5025810;28;20149;-92
2020/12/23 04:25:38;;;;;;;2.97;1.98;;;13.40;99.90;;;;;;5022857;28;20165;-93
2020/12/23 04:28:05;;;;;;;2.90;1.88;;;13.40;99.90;;;;;;5020329;28;20192;-94
2020/12/23 04:30:30;;;;;;;4.22;1.63;;;13.40;99.90;;;;;;5007466;28;20208;-94
2020/12/23 04:32:59;;;;;;;2.22;1.70;;;13.40;99.90;;;;;;5021887;28;20176;-94
2020/12/23 04:35:25;;;;;;;2.10;1.65;;;13.40;99.90;;;;;;5005994;28;20176;-94
2020/12/23 04:37:51;;;;;;;3.30;1.80;;;13.50;99.90;;;;;;5018068;28;20208;-94
2020/12/23 04:40:19;;;;;;;3.60;1.23;;;13.50;99.90;;;;;;5005450;28;20183;-94
2020/12/23 04:42:47;;;;;;;1.25;1.15;;;13.50;99.90;;;;;;5021359;28;20164;-93
2020/12/23 04:45:16;;;;;;;1.13;0.98;;;13.50;99.90;;;;;;5020003;28;20169;-94
2020/12/23 04:47:46;;;;;;;3.45;1.30;;;13.60;99.90;;;;;;5022874;28;20536;-94
2020/12/23 04:50:17;;;;;;;1.35;0.88;;;13.50;99.90;;;;;;5023648;28;20197;-94
2020/12/23 04:52:46;;;;;;;1.40;1.02;;;13.50;99.90;;;;;;5021591;28;20184;-94
2020/12/23 04:55:11;;;;;;;0.63;0.63;;;13.50;99.90;;;;;;5022591;28;20267;-93
2020/12/23 04:57:40;;;;;;;1.98;0.95;;;13.50;99.90;;;;;;5022320;28;20196;-94
2020/12/23 05:00:11;;;;;;;2.40;0.60;;;13.50;99.90;;;;;;5021471;28;20511;-94
2020/12/23 05:02:37;;;;;;;4.00;0.90;;;13.50;99.90;;;;;;5002396;28;20193;-95
2020/12/23 05:05:03;;;;;;;0.70;0.70;;;13.50;99.90;;;;;;5021902;28;20173;-94
2020/12/23 05:07:29;;;;;;;0.60;0.60;;;13.50;99.90;;;;;;5021105;28;20199;-94
2020/12/23 05:09:54;;;;;;;1.10;0.80;;;13.40;99.90;;;;;;5004405;28;20209;-94
2020/12/23 05:12:20;;;;;;;0.68;0.60;;;13.50;99.90;;;;;;5022142;28;20235;-94
2020/12/23 05:14:47;;;;;;;0.77;0.77;;;13.50;99.90;;;;;;5022118;28;20175;-93
2020/12/23 05:17:15;;;;;;;1.10;0.63;;;13.60;99.90;;;;;;5005948;28;20172;-94
2020/12/23 05:19:41;;;;;;;0.93;0.60;;;13.70;99.90;;;;;;5021434;28;20279;-94
2020/12/23 05:22:08;;;;;;;0.75;0.70;;;13.70;99.90;;;;;;5000333;28;20204;-95
2020/12/23 05:24:40;;;;;;;0.93;0.60;;;13.70;99.90;;;;;;5014330;28;20623;-94
2020/12/23 05:27:07;;;;;;;3.40;0.60;;;13.70;99.90;;;;;;5014329;28;20200;-94
2020/12/23 05:29:33;;;;;;;1.75;0.68;;;13.70;99.90;;;;;;5014528;28;20212;-95
2020/12/23 05:32:04;;;;;;;0.73;0.60;;;13.70;99.90;;;;;;5014189;28;20173;-94
2020/12/23 05:34:35;;;;;;;0.60;0.60;;;13.70;99.90;;;;;;5014351;28;20172;-94
2020/12/23 05:37:02;;;;;;;0.50;0.50;;;13.60;99.90;;;;;;5013874;28;20263;-95
2020/12/23 05:39:32;;;;;;;1.67;0.70;;;13.50;99.90;;;;;;5013992;28;20189;-95
2020/12/23 05:42:02;;;;;;;2.55;0.77;;;13.50;99.90;;;;;;4997692;28;20192;-94
2020/12/23 05:44:29;;;;;;;1.17;0.60;;;13.40;99.90;;;;;;5013646;28;20164;-94
2020/12/23 05:46:55;;;;;;;1.73;0.65;;;13.40;99.90;;;;;;5013619;28;20180;-95
2020/12/23 05:49:24;;;;;;;1.35;0.90;;;13.40;99.90;;;;;;5013814;28;20202;-94
2020/12/23 05:51:52;;;;;;;0.52;0.50;;;13.40;99.90;;;;;;5013662;28;20692;-94
2020/12/23 05:54:21;;;;;;;2.75;0.70;;;13.40;99.90;;;;;;5015163;28;20176;-94
2020/12/23 05:56:53;;;;;;;0.82;0.63;;;13.40;99.90;;;;;;5013697;28;20184;-95
2020/12/23 05:59:20;;;;;;;0.70;0.70;;;13.40;99.90;;;;;;5013687;28;20169;-94
2020/12/23 06:01:48;;;;;;;1.83;0.60;;;13.40;99.90;;;;;;5013689;28;20256;-94
2020/12/23 06:04:15;;;;;;;1.20;0.60;;;13.40;99.90;;;;;;5014552;28;20219;-94
2020/12/23 06:06:45;;;;;;;1.23;0.60;;;13.40;99.90;;;;;;4998645;28;20218;-94
2020/12/23 06:09:11;;;;;;;0.60;0.60;;;13.50;99.90;;;;;;5013711;28;20180;-94
2020/12/23 06:11:54;;;;;;;1.27;0.73;;;13.60;99.90;;;;;;5014330;28;20204;-94
2020/12/23 06:14:24;;;;;;;1.17;0.77;;;13.60;99.90;;;;;;5014055;28;20164;-93
2020/12/23 06:16:59;;;;;;;1.48;0.80;;;13.60;99.90;;;;;;5013900;28;20234;-94
2020/12/23 06:19:30;;;;;;;1.23;0.88;;;13.60;99.90;;;;;;5013672;28;20195;-93
2020/12/23 06:21:59;;;;;;;1.20;0.70;;;13.60;99.90;;;;;;5013959;28;20176;-94
2020/12/23 06:24:25;;;;;;;2.45;0.88;;;13.70;99.90;;;;;;5013819;28;20172;-94
2020/12/23 06:26:54;;;;;;;2.97;1.13;;;13.70;99.90;;;;;;5014573;28;20177;-94
2020/12/23 06:29:24;;;;;;;0.73;0.70;;;13.80;99.90;;;;;;5014468;28;20200;-93
2020/12/23 06:32:02;;;;;;;7.15;1.25;;;13.80;99.90;;;;;;5016685;28;20157;-93
2020/12/23 06:34:32;;;;;;;2.05;1.40;;;13.90;99.90;;;;;;5037479;28;20179;-93
2020/12/23 06:36:59;;;;;;;2.08;1.48;;;14.00;99.90;;;;;;5033810;28;20196;-93
2020/12/23 06:39:28;;;;;;;4.38;1.48;;;13.90;99.90;;;;;;5027158;28;20181;-93
2020/12/23 06:42:00;;;;;;;2.30;1.60;;;13.90;99.90;;;;;;5013709;28;20550;-92
2020/12/23 06:44:43;;;;;;;2.75;1.60;;;13.90;99.90;;;;;;5014855;28;20200;-93
2020/12/23 06:47:19;;;;;;;1.70;1.60;;;13.90;99.90;;;;;;5015042;28;20161;-93
2020/12/23 06:49:47;;;;;;;5.18;1.75;;;13.80;99.90;;;;;;5019001;28;20196;-92
2020/12/23 06:52:22;;;;;;;5.05;1.40;;;13.90;99.90;;;;;;5017721;28;20158;-91
2020/12/23 06:55:04;;;;;;;2.05;1.38;;;13.90;99.90;;;;;;5013959;28;20244;-93
2020/12/23 06:57:38;;;;;;;3.83;1.40;;;13.80;99.90;;;;;;5007428;28;20231;-93
2020/12/23 07:00:20;;;;;;;2.30;1.48;;;13.80;99.90;;;;;;5017235;28;20180;-93
2020/12/23 07:02:56;;;;;;;1.70;1.60;;;13.90;99.90;;;;;;4997997;28;20236;-94
2020/12/23 07:05:21;;;;;;;1.33;1.20;;;13.90;99.90;;;;;;4983821;28;20184;-93
2020/12/23 07:07:55;;;;;;;2.53;1.25;;;14.00;99.90;;;;;;5002743;28;20161;-94
2020/12/23 07:10:25;;;;;;;2.78;1.20;;;14.10;99.90;;;;;;5016944;28;20197;-93
2020/12/23 07:13:04;;;;;;;1.98;1.13;;;14.10;99.90;;;;;;5016649;28;20291;-94
2020/12/23 07:15:38;;;;;;;4.35;1.55;;;14.20;99.90;;;;;;5016728;28;20203;-93
2020/12/23 07:18:09;;;;;;;1.48;1.38;;;14.20;99.90;;;;;;4997393;28;20166;-94
2020/12/23 07:20:59;;;;;;;1.50;1.40;;;14.20;99.90;;;;;;4996993;28;20677;-94
2020/12/23 07:23:27;;;;;;;3.08;1.60;;;14.30;99.90;;;;;;5015850;28;20169;-94
2020/12/23 07:25:58;;;;;;;1.77;1.67;;;14.30;99.90;;;;;;5018530;28;20215;-94
2020/12/23 07:28:29;;;;;;;3.35;1.75;;;14.40;99.90;;;;;;5016879;28;20227;-94
2020/12/23 07:30:57;;;;;;;2.08;1.83;;;14.50;99.90;;;;;;5016388;28;20223;-94
2020/12/23 07:33:24;;;;;;;2.10;1.90;;;14.40;99.90;;;;;;5017412;28;20169;-94
2020/12/23 07:36:02;;;;;;;3.60;1.83;;;14.40;99.90;;;;;;5018375;28;20179;-94
2020/12/23 07:38:30;;;;;;;2.90;2.00;;;14.40;99.90;;;;;;5015941;28;20622;-94
2020/12/23 07:40:56;;;;;;;2.08;1.88;;;14.50;99.90;;;;;;5016481;28;20247;-94
2020/12/23 07:43:23;;;;;;;3.13;2.83;;;14.30;99.90;;;;;;5015459;28;20173;-95
2020/12/23 07:45:50;;;;;;;4.85;2.45;;;14.40;99.90;;;;;;5016277;28;20263;-94
2020/12/23 07:48:18;;;;;;;2.20;2.00;;;14.30;99.90;;;;;;5015849;28;20264;-94
2020/12/23 07:50:54;;;;;;;2.28;1.90;;;14.30;99.90;;;;;;5016110;28;20269;-94
2020/12/23 07:53:22;;;;;;;1.90;1.73;;;14.30;99.90;;;;;;5016092;28;20607;-93
2020/12/23 07:55:49;;;;;;;2.20;2.00;;;14.20;99.90;;;;;;5015937;28;20168;-93
2020/12/23 07:58:16;;;;;;;2.60;2.20;;;14.10;99.90;;;;;;5016131;28;20169;-93
2020/12/23 08:00:44;;;;;;;6.75;2.28;;;14.00;99.90;;;;;;5015681;28;20223;-93
2020/12/23 08:03:11;;;;;;;1.92;1.83;;;13.90;99.90;;;;;;4996166;28;20264;-93
2020/12/23 08:05:37;;;;;;;3.95;2.13;;;14.00;99.90;;;;;;4995861;28;20173;-93
2020/12/23 08:08:02;;;;;;;4.63;2.35;;;14.00;99.90;;;;;;5012457;28;20173;-94
2020/12/23 08:10:29;;;;;;;3.58;2.83;;;14.00;99.90;;;;;;4996125;28;20706;-94
2020/12/23 08:13:03;;;;;;;2.72;2.53;;;14.10;99.90;;;;;;5013805;28;20221;-93
2020/12/23 08:15:29;;;;;;;3.13;2.83;;;14.10;99.90;;;;;;5023552;28;20168;-95
2020/12/23 08:18:04;;;;;;;3.08;2.40;;;14.20;99.90;;;;;;5015339;28;20242;-94
2020/12/23 08:20:34;;;;;;;2.60;2.40;;;14.10;99.90;;;;;;5016487;28;20185;-94
2020/12/23 08:23:00;;;;;;;2.38;2.28;;;14.00;99.90;;;;;;5017211;28;20161;-94
2020/12/23 08:25:28;;;;;;;2.28;2.08;;;14.00;99.90;;;;;;5017536;28;20180;-94
2020/12/23 08:27:56;;;;;;;3.40;1.90;;;13.80;99.90;;;;;;5018961;28;20176;-94
2020/12/23 08:30:25;;;;;;;2.00;1.83;;;13.70;99.90;;;;;;5017987;28;20205;-95
2020/12/23 08:33:13;;;;;;;7.90;1.60;;;13.80;99.90;;;;;;5019997;28;20637;-95
2020/12/23 08:35:44;;;;;;;4.97;1.35;;;13.80;99.90;;;;;;5020498;28;20248;-94
2020/12/23 08:38:33;;;;;;;1.05;1.00;;;13.80;99.90;;;;;;5017026;28;20174;-94
2020/12/23 08:40:59;;;;;;;1.35;1.25;;;13.90;99.90;;;;;;5015295;28;20605;-93
2020/12/23 08:43:30;;;;;;;4.43;1.25;;;13.80;99.90;;;;;;5013179;28;20204;-94
2020/12/23 08:45:58;;;;;;;6.63;1.17;;;13.80;99.90;;;;;;5013278;28;20185;-93
2020/12/23 08:48:26;;;;;;;1.80;1.13;;;13.70;99.90;;;;;;5014722;28;20534;-94
2020/12/23 08:50:58;;;;;;;2.85;1.27;;;13.70;99.90;;;;;;5015935;28;20235;-94
2020/12/23 08:53:36;;;;;;;1.45;1.10;;;13.70;99.90;;;;;;5000563;28;20173;-95
2020/12/23 08:56:28;;;;;;;1.60;1.02;;;13.80;99.90;;;;;;5016507;28;20258;-94
2020/12/23 08:58:59;;;;;;;1.80;1.10;;;13.80;99.90;;;;;;5026373;28;20199;-94
2020/12/23 09:01:29;;;;;;;2.05;1.42;;;13.80;99.90;;;;;;5038353;28;20181;-94
2020/12/23 09:04:12;;;;;;;2.70;0.93;;;13.80;99.90;;;;;;5003255;28;20204;-95
2020/12/23 09:06:40;;;;;;;0.85;0.80;;;13.80;99.90;;;;;;5017760;28;20164;-94
2020/12/23 09:09:17;;;;;;;5.72;1.30;;;13.80;99.90;;;;;;5015793;28;20172;-93
2020/12/23 09:11:53;;;;;;;6.03;1.30;;;13.80;99.90;;;;;;5015591;28;20161;-90
2020/12/23 09:14:35;;;;;;;1.02;0.93;;;13.60;99.90;;;;;;5015681;28;20160;-91
2020/12/23 09:17:02;;;;;;;4.68;1.02;;;13.60;99.90;;;;;;5028882;28;20173;-90
2020/12/23 09:19:48;;;;;;;1.42;1.13;;;13.70;99.90;;;;;;5033415;28;20200;-90
2020/12/23 09:22:27;;;;;;;1.27;1.17;;;13.60;99.90;;;;;;5020870;28;20173;-90
2020/12/23 09:25:14;;;;;;;1.13;1.10;;;13.70;99.90;;;;;;5004611;28;20172;-90
2020/12/23 09:27:40;;;;;;;1.75;1.48;;;13.60;99.90;;;;;;5010274;28;20247;-90
2020/12/23 09:30:07;;;;;;;3.92;1.45;;;13.60;99.90;;;;;;5000362;28;20304;-89
2020/12/23 09:32:33;;;;;;;2.25;1.80;;;13.60;99.90;;;;;;5001396;28;20268;-90
2020/12/23 09:35:15;;;;;;;1.98;1.80;;;13.60;99.90;;;;;;4991565;28;20242;-89
2020/12/23 09:37:43;;;;;;;2.20;2.10;;;13.70;99.90;;;;;;5023821;28;20180;-90
2020/12/23 09:40:11;;;;;;;2.42;2.22;;;13.50;99.90;;;;;;5022640;28;21372;-90
2020/12/23 09:42:37;;;;;;;1.98;1.88;;;13.40;99.90;;;;;;5014263;28;20190;-89
2020/12/23 09:45:03;;;;;;;1.60;1.50;;;13.40;99.90;;;;;;5024994;28;20272;-89
2020/12/23 09:47:29;;;;;;;1.83;1.63;;;13.40;99.90;;;;;;4993038;28;20173;-89
2020/12/23 09:49:54;;;;;;;1.45;1.10;;;13.40;99.90;;;;;;5026287;28;20709;-88
2020/12/23 09:52:20;;;;;;;3.40;1.25;;;13.40;99.90;;;;;;5009791;28;20697;-90
2020/12/23 09:54:46;;;;;;;1.05;0.95;;;13.50;99.90;;;;;;5025038;28;20181;-89
2020/12/23 09:57:11;;;;;;;3.80;0.90;;;13.50;99.90;;;;;;5025506;28;20572;-89
2020/12/23 09:59:37;;;;;;;3.28;0.70;;;13.50;99.90;;;;;;5022663;28;20238;-89
2020/12/23 10:02:02;;;;;;;0.73;0.73;;;13.50;99.90;;;;;;4977111;28;20176;-78
2020/12/23 10:04:28;;;;;;;1.17;0.90;;;13.40;99.90;;;;;;4995957;28;20531;-83
2020/12/23 10:06:54;;;;;;;1.48;0.50;;;13.50;99.90;;;;;;4986784;28;20197;-83
2020/12/23 10:09:19;;;;;;;1.08;0.60;;;13.40;99.90;;;;;;4961214;28;20170;-83
2020/12/23 10:11:45;;;;;;;5.43;0.68;;;13.50;99.90;;;;;;4997876;28;20260;-83
2020/12/23 10:14:10;;;;;;;0.98;0.70;;;13.50;99.90;;;;;;4998224;28;20312;-83
2020/12/23 10:16:36;;;;;;;1.20;1.00;;;13.60;99.90;;;;;;4998786;28;20384;-83
2020/12/23 10:19:02;;;;;;;2.75;1.70;;;13.70;99.90;;;;;;5016696;28;20177;-83
2020/12/23 10:21:28;;;;;;;2.60;1.73;;;13.70;99.90;;;;;;5016318;28;20179;-84
2020/12/23 10:23:54;;;;;;;3.03;1.77;;;13.80;99.90;;;;;;4996406;28;20177;-85
2020/12/23 10:26:20;;;;;;;2.72;2.10;;;13.80;99.90;;;;;;4996015;28;20240;-83
2020/12/23 10:28:46;;;;;;;3.45;1.90;;;13.80;99.90;;;;;;4988147;28;20717;-84
2020/12/23 10:31:12;;;;;;;3.28;2.10;;;13.90;99.90;;;;;;5002263;28;20259;-84
2020/12/23 10:33:37;;;;;;;2.35;1.73;;;14.10;99.90;;;;;;5018424;28;20180;-84
2020/12/23 10:36:08;;;;;;;2.58;1.95;;;14.10;99.90;;;;;;5014133;28;20183;-83
2020/12/23 10:38:34;;;;;;;3.30;2.03;;;14.10;99.90;;;;;;5021065;28;20161;-84
2020/12/23 10:41:00;;;;;;;3.78;1.60;;;14.00;99.90;;;;;;5020780;28;20534;-84
2020/12/23 10:43:26;;;;;;;4.40;1.92;;;14.10;99.90;;;;;;4989742;28;20267;-83
2020/12/23 10:45:51;;;;;;;1.95;1.60;;;14.00;99.90;;;;;;5020661;28;20179;-83
2020/12/23 10:48:17;;;;;;;2.88;2.00;;;14.00;99.90;;;;;;5011863;28;20182;-83
2020/12/23 10:50:46;;;;;;;2.80;1.80;;;14.00;99.90;;;;;;5002236;28;20252;-83
2020/12/23 10:53:11;;;;;;;1.95;1.70;;;14.00;99.90;;;;;;5007405;28;20635;-83
2020/12/23 10:55:37;;;;;;;1.98;1.65;;;13.90;99.90;;;;;;4988944;28;20203;-83
2020/12/23 10:58:03;;;;;;;2.67;1.70;;;14.00;99.90;;;;;;5005941;28;20184;-83
2020/12/23 11:00:28;;;;;;;1.75;1.50;;;13.90;99.90;;;;;;5021778;28;20236;-83
2020/12/23 11:02:55;;;;;;;2.10;1.55;;;13.80;99.90;;;;;;5017717;28;20609;-82
2020/12/23 11:05:21;;;;;;;1.88;1.77;;;13.80;99.90;;;;;;4998751;28;20585;-83
2020/12/23 11:07:47;;;;;;;6.32;1.90;;;13.80;99.90;;;;;;4997781;28;20186;-82
2020/12/23 11:10:14;;;;;;;2.60;2.05;;;13.80;99.90;;;;;;4998289;28;20324;-83
2020/12/23 11:12:39;;;;;;;1.85;1.65;;;13.70;99.90;;;;;;4996633;28;20169;-83
2020/12/23 11:15:05;;;;;;;1.30;1.20;;;13.60;99.90;;;;;;5006503;28;20204;-83
2020/12/23 11:17:31;;;;;;;0.95;0.95;;;13.60;99.90;;;;;;4999265;28;20177;-84
2020/12/23 11:19:56;;;;;;;1.67;0.90;;;13.60;99.90;;;;;;4998915;28;20625;-83
2020/12/23 11:22:22;;;;;;;3.35;1.10;;;13.50;99.90;;;;;;5015111;28;20637;-83
2020/12/23 11:24:47;;;;;;;6.20;1.48;;;13.40;99.90;;;;;;5018102;28;20172;-83
2020/12/23 11:27:15;;;;;;;1.20;1.10;;;13.50;99.90;;;;;;5001784;28;20184;-85
2020/12/23 11:29:41;;;;;;;1.58;1.48;;;13.50;99.90;;;;;;4989249;28;20212;-85
2020/12/23 11:32:07;;;;;;;1.48;1.38;;;13.50;99.90;;;;;;4988695;28;20173;-84
2020/12/23 11:34:32;;;;;;;2.38;1.63;;;13.60;99.90;;;;;;4993394;28;20169;-82
2020/12/23 11:37:01;;;;;;;3.03;1.80;;;13.60;99.90;;;;;;5016180;28;20212;-82
2020/12/23 11:39:27;;;;;;;2.78;1.98;;;13.60;99.90;;;;;;5000415;28;20166;-84
2020/12/23 11:41:57;;;;;;;6.60;1.20;;;13.60;99.90;;;;;;4986340;28;20360;-82
2020/12/23 11:44:24;;;;;;;1.85;1.30;;;13.50;99.90;;;;;;5004193;28;20758;-83
2020/12/23 11:46:50;;;;;;;2.45;1.25;;;13.60;99.90;;;;;;5018234;28;20172;-85
2020/12/23 11:49:16;;;;;;;2.25;1.17;;;13.60;99.90;;;;;;5023021;28;20181;-83
2020/12/23 11:51:42;;;;;;;2.08;1.35;;;13.60;99.90;;;;;;5028183;28;20172;-84
2020/12/23 11:54:07;;;;;;;4.97;1.20;;;13.70;99.90;;;;;;4990646;28;20267;-82
2020/12/23 11:56:34;;;;;;;1.58;1.00;;;13.70;99.90;;;;;;5016026;28;20169;-82
2020/12/23 11:58:59;;;;;;;1.20;1.10;;;13.70;99.90;;;;;;5017044;28;20268;-81
2020/12/23 12:01:25;;;;;;;1.65;1.15;;;13.80;99.90;;;;;;5015906;28;20224;-80
2020/12/23 12:03:51;;;;;;;1.55;1.30;;;13.80;99.90;;;;;;5016854;28;20184;-79
2020/12/23 12:06:18;;;;;;;4.15;1.70;;;13.80;99.90;;;;;;5015871;28;20642;-81
2020/12/23 12:08:43;;;;;;;3.58;2.10;;;13.70;99.90;;;;;;4998328;28;20622;-80
2020/12/23 12:11:09;;;;;;;4.40;2.35;;;13.80;99.90;;;;;;5013891;28;20227;-80
2020/12/23 12:13:35;;;;;;;4.63;2.60;;;13.70;99.90;;;;;;5015000;28;20177;-79
2020/12/23 12:16:00;;;;;;;6.38;2.30;;;13.70;99.90;;;;;;4997873;28;20618;-79
2020/12/23 12:18:26;;;;;;;5.03;2.72;;;13.70;99.90;;;;;;5014444;28;20169;-79
2020/12/23 12:20:51;;;;;;;5.65;2.92;;;13.70;99.90;;;;;;4993936;28;20185;-79
2020/12/23 12:23:17;;;;;;;7.40;3.38;;;13.80;99.90;;;;;;5000597;28;20173;-79
2020/12/23 12:25:42;;;;;;;3.60;2.67;;;13.80;99.90;;;;;;5004930;28;20200;-80
2020/12/23 12:28:08;;;;;;;8.60;2.75;;;13.80;99.90;;;;;;5014828;28;20657;-80
2020/12/23 12:30:35;;;;;;;4.32;2.65;;;13.80;99.90;;;;;;5014886;28;20201;-80
2020/12/23 12:33:01;;;;;;;7.18;2.97;;;13.80;99.90;;;;;;4997321;28;20231;-80
2020/12/23 12:35:27;;;;;;;5.70;2.58;;;13.70;99.90;;;;;;5013332;28;20176;-80
2020/12/23 12:37:53;;;;;;;4.78;2.60;;;13.70;99.90;;;;;;5013433;28;20606;-79
2020/12/23 12:40:18;;;;;;;3.90;3.17;;;13.70;99.90;;;;;;5013352;28;20626;-80
2020/12/23 12:42:44;;;;;;;4.30;2.40;;;13.80;99.90;;;;;;5014052;28;20188;-80
2020/12/23 12:45:10;;;;;;;2.55;2.10;;;13.80;99.90;;;;;;4996399;28;20263;-81
2020/12/23 12:47:35;;;;;;;5.30;2.45;;;13.80;99.90;;;;;;5012931;28;20251;-79
2020/12/23 12:50:01;;;;;;;2.53;1.90;;;13.80;99.90;;;;;;5014531;28;20303;-79
2020/12/23 12:52:26;;;;;;;2.00;1.80;;;13.80;99.90;;;;;;5014157;28;20481;-79